Time;durP1;ratioP1;P1;durP2;ratioP2;P2;SDS_P1;SDS_P2;PMS_P1;PMS_P2;Temp;Humidity;BMP_temperature;BMP_pressure;BME280_temperature;BME280_humidity;BME280_pressure;Samples;Min_cycle;Max_cycle;Signal;HPM_P1;HPM_P2
2023/07/23 00:00:47;;;;;;;19.37;5.23;;;;;;;-143.84;46.31;44993.84;4973113;28;20947;-55
2023/07/23 00:03:14;;;;;;;12.63;4.43;;;;;;;-143.84;46.54;45018.59;4973312;28;20874;-56
2023/07/23 00:05:44;;;;;;;18.77;4.70;;;;;;;-143.84;46.83;45024.31;4972940;28;20465;-56
2023/07/23 00:08:11;;;;;;;10.37;3.73;;;;;;;-143.84;46.60;45012.88;4973143;28;20451;-54
2023/07/23 00:10:38;;;;;;;13.83;4.03;;;;;;;-143.84;46.58;45041.44;4972984;28;20497;-54
2023/07/23 00:13:07;;;;;;;10.03;4.00;;;;;;;-143.84;46.54;45033.84;4973251;28;20480;-54
2023/07/23 00:15:34;;;;;;;9.73;3.60;;;;;;;-143.84;46.62;45014.78;4973011;28;20505;-54
2023/07/23 00:18:01;;;;;;;5.10;3.10;;;;;;;-143.84;46.75;45022.41;4972986;28;21010;-54
2023/07/23 00:20:28;;;;;;;9.50;3.70;;;;;;;-143.84;46.90;45026.22;4973045;28;20450;-54
2023/07/23 00:22:56;;;;;;;7.40;3.77;;;;;;;-143.84;46.86;45039.53;4973049;28;21084;-54
2023/07/23 00:25:23;;;;;;;10.20;3.00;;;;;;;-143.84;46.78;45024.31;4973234;28;20442;-54
2023/07/23 00:27:50;;;;;;;8.63;3.10;;;;;;;-143.84;46.72;45009.09;4972757;28;21259;-54
2023/07/23 00:30:19;;;;;;;7.40;3.63;;;;;;;-143.84;46.57;45007.19;4972916;28;21247;-54
2023/07/23 00:32:46;;;;;;;12.77;3.57;;;;;;;-143.84;46.76;45024.31;4972640;28;20988;-54
2023/07/23 00:35:13;;;;;;;13.17;4.10;;;;;;;-143.84;46.84;45024.31;4972853;28;20499;-54
2023/07/23 00:37:40;;;;;;;8.07;3.63;;;;;;;-143.84;46.92;45003.38;4972726;28;20441;-54
2023/07/23 00:40:09;;;;;;;10.50;3.73;;;;;;;-143.84;47.12;45020.50;4972663;28;20500;-54
2023/07/23 00:42:36;;;;;;;13.20;4.07;;;;;;;-143.84;46.85;45033.84;4972534;28;20588;-54
2023/07/23 00:45:04;;;;;;;5.50;3.70;;;;;;;-143.84;47.00;45033.84;4972649;28;20446;-54
2023/07/23 00:47:33;;;;;;;16.50;4.23;;;;;;;-143.84;46.72;45024.31;4972443;28;20516;-54
2023/07/23 00:50:00;;;;;;;15.53;3.67;;;;;;;-143.84;46.89;45010.97;4972668;28;20457;-54
2023/07/23 00:52:27;;;;;;;9.43;3.97;;;;;;;-143.84;47.14;45024.31;4972285;28;20447;-54
2023/07/23 00:54:55;;;;;;;19.47;3.77;;;;;;;-143.84;47.02;45009.09;4972179;28;20500;-54
2023/07/23 00:57:23;;;;;;;9.90;3.57;;;;;;;-143.84;48.10;45012.88;4973590;28;20521;-54
2023/07/23 00:59:50;;;;;;;9.13;3.50;;;;;;;-143.84;48.37;45020.50;4973831;28;20442;-54
2023/07/23 01:02:17;;;;;;;14.63;4.57;;;;;;;-143.84;52.76;45007.19;4974026;28;20489;-54
2023/07/23 01:04:45;;;;;;;16.93;5.67;;;;;;;-143.84;59.38;45022.41;4973746;28;20446;-54
2023/07/23 01:07:13;;;;;;;11.80;5.20;;;;;;;-143.84;63.14;45009.09;4973954;28;20442;-54
2023/07/23 01:09:41;;;;;;;11.60;5.70;;;;;;;-143.84;66.36;45022.41;4973573;28;20504;-54
2023/07/23 01:12:09;;;;;;;12.43;6.20;;;;;;;-143.84;67.47;45039.53;4973691;28;20898;-54
2023/07/23 01:14:37;;;;;;;18.07;5.90;;;;;;;-143.84;68.12;45037.66;4973658;28;20441;-54
2023/07/23 01:17:05;;;;;;;19.40;5.60;;;;;;;-143.84;69.46;45056.69;4973560;28;20780;-54
2023/07/23 01:19:32;;;;;;;11.03;4.17;;;;;;;-143.84;68.94;45049.06;4973603;28;20944;-54
2023/07/23 01:22:01;;;;;;;7.83;4.47;;;;;;;-143.84;69.62;45041.44;4973360;28;20482;-54
2023/07/23 01:24:28;;;;;;;14.93;4.60;;;;;;;-143.84;70.60;45037.66;4973380;28;20447;-54
2023/07/23 01:26:55;;;;;;;8.20;4.77;;;;;;;-143.84;72.43;45028.13;4973429;28;20530;-54
2023/07/23 01:29:22;;;;;;;10.50;5.00;;;;;;;-143.84;72.11;45041.44;4973621;28;20453;-54
2023/07/23 01:31:49;;;;;;;4.87;3.90;;;;;;;-143.84;70.83;45054.78;4973470;28;20450;-54
2023/07/23 01:34:17;;;;;;;16.97;4.40;;;;;;;-143.84;71.04;45045.25;4973328;28;20441;-54
2023/07/23 01:36:45;;;;;;;10.20;4.30;;;;;;;-143.84;72.86;45033.84;4973218;28;20464;-54
2023/07/23 01:39:14;;;;;;;12.93;4.20;;;;;;;-143.84;74.51;45043.34;4973146;28;20938;-54
2023/07/23 01:41:41;;;;;;;12.07;4.53;;;;;;;-143.84;74.28;45033.84;4973067;28;20970;-54
2023/07/23 01:44:09;;;;;;;11.33;4.57;;;;;;;-143.84;74.20;45031.94;4973267;28;20452;-54
2023/07/23 01:46:36;;;;;;;11.33;4.43;;;;;;;-143.84;72.87;45024.31;4973030;28;20442;-54
2023/07/23 01:49:03;;;;;;;8.23;3.90;;;;;;;-143.84;70.91;45060.50;4972998;28;20446;-54
2023/07/23 01:51:30;;;;;;;12.97;4.70;;;;;;;-143.84;73.16;45035.75;4973077;28;20835;-54
2023/07/23 01:53:57;;;;;;;17.97;5.13;;;;;;;-143.84;76.31;45052.88;4972718;28;20538;-54
2023/07/23 01:56:26;;;;;;;17.70;4.90;;;;;;;-143.84;77.72;45062.41;4971287;28;20511;-54
2023/07/23 01:58:53;;;;;;;11.77;4.63;;;;;;;-143.84;78.55;45024.31;4971400;28;20523;-50
2023/07/23 02:01:21;;;;;;;10.60;4.10;;;;;;;-143.84;79.37;45041.44;4971124;28;20887;-49
2023/07/23 02:03:48;;;;;;;8.60;4.63;;;;;;;-143.84;79.41;45045.25;4971135;28;20640;-48
2023/07/23 02:06:15;;;;;;;8.23;4.87;;;;;;;-143.84;79.94;45079.53;4970837;28;20468;-53
2023/07/23 02:08:42;;;;;;;8.87;4.07;;;;;;;-143.84;78.77;45054.78;4970476;28;20513;-54
2023/07/23 02:11:09;;;;;;;14.33;4.60;;;;;;;-143.84;79.62;45060.50;4970882;28;20453;-54
2023/07/23 02:13:37;;;;;;;8.40;4.80;;;;;;;-143.84;78.41;45041.44;4971021;28;20445;-54
2023/07/23 02:16:05;;;;;;;6.70;4.27;;;;;;;-143.84;79.47;45031.94;4971156;28;20884;-54
2023/07/23 02:18:33;;;;;;;12.33;4.47;;;;;;;-143.84;79.94;45049.06;4970812;28;20480;-54
2023/07/23 02:21:00;;;;;;;11.63;3.93;;;;;;;-143.84;79.51;45037.66;4970611;28;20511;-54
2023/07/23 02:23:27;;;;;;;7.87;4.53;;;;;;;-143.84;78.89;45031.94;4970575;28;20492;-54
2023/07/23 02:25:54;;;;;;;10.80;4.60;;;;;;;-143.84;78.52;45075.72;4970505;28;20452;-54
2023/07/23 02:28:21;;;;;;;14.00;4.20;;;;;;;-143.84;78.09;45047.16;4970529;28;20508;-54
2023/07/23 02:30:57;;;;;;;8.60;4.00;;;;;;;-143.84;77.83;45045.25;4970634;28;20473;-54
2023/07/23 02:33:25;;;;;;;7.33;4.17;;;;;;;-143.84;78.23;45087.16;4970337;28;20452;-54
2023/07/23 02:35:52;;;;;;;14.17;3.80;;;;;;;-143.84;77.94;45064.31;4970309;28;20523;-54
2023/07/23 02:38:19;;;;;;;9.73;4.30;;;;;;;-143.84;75.29;45094.78;4970714;28;20444;-54
2023/07/23 02:40:46;;;;;;;13.47;5.10;;;;;;;-143.84;74.55;45071.91;4970289;28;20499;-54
2023/07/23 02:43:13;;;;;;;10.30;4.17;;;;;;;-143.84;74.44;45077.63;4970244;28;20492;-54
2023/07/23 02:45:40;;;;;;;14.00;4.30;;;;;;;-143.84;74.67;45071.91;4970368;28;20461;-54
2023/07/23 02:48:09;;;;;;;7.30;4.17;;;;;;;-143.84;73.08;45047.16;4970545;28;20460;-54
2023/07/23 02:50:36;;;;;;;7.30;4.27;;;;;;;-143.84;71.58;45064.31;4970221;28;20447;-54
2023/07/23 02:53:03;;;;;;;11.23;3.83;;;;;;;-143.84;71.58;45064.31;4970027;28;20459;-54
2023/07/23 02:55:30;;;;;;;11.27;4.47;;;;;;;-143.84;70.97;45039.53;4970044;28;20846;-54
2023/07/23 02:58:00;;;;;;;15.90;5.43;;;;;;;-143.84;71.22;45062.41;4970244;28;21020;-54
2023/07/23 03:00:28;;;;;;;12.00;4.63;;;;;;;-143.84;71.68;45041.44;4970280;28;20530;-54
2023/07/23 03:02:55;;;;;;;9.23;4.33;;;;;;;-143.84;72.21;45066.22;4969942;28;20484;-54
2023/07/23 03:05:24;;;;;;;22.00;5.10;;;;;;;-143.84;71.69;45079.53;4970165;28;21026;-54
2023/07/23 03:07:53;;;;;;;12.00;4.93;;;;;;;-143.84;72.10;45094.78;4970020;28;20451;-54
2023/07/23 03:10:20;;;;;;;14.33;5.43;;;;;;;-143.84;72.11;45079.53;4970043;28;20859;-54
2023/07/23 03:12:47;;;;;;;15.77;6.00;;;;;;;-143.84;71.52;45062.41;4970014;28;20510;-54
2023/07/23 03:15:14;;;;;;;18.70;5.90;;;;;;;-143.84;71.62;45077.63;4970041;28;20447;-54
2023/07/23 03:17:41;;;;;;;17.63;5.07;;;;;;;-143.84;71.62;45047.16;4970229;28;20873;-54
2023/07/23 03:20:10;;;;;;;14.70;5.90;;;;;;;-143.84;71.99;45083.34;4974140;28;20453;-54
2023/07/23 03:22:40;;;;;;;18.20;5.50;;;;;;;-143.84;72.39;45054.78;4974052;28;20488;-54
2023/07/23 03:25:07;;;;;;;10.60;5.43;;;;;;;-143.84;71.48;45049.06;4974001;28;20444;-54
2023/07/23 03:27:34;;;;;;;34.47;7.10;;;;;;;-143.84;71.09;45030.03;4973896;28;20495;-54
2023/07/23 03:30:02;;;;;;;16.87;5.07;;;;;;;-143.84;71.31;45071.91;4973751;28;20457;-54
2023/07/23 03:32:30;;;;;;;12.40;5.33;;;;;;;-143.84;72.01;45020.50;4973494;28;20452;-54
2023/07/23 03:34:57;;;;;;;32.00;4.90;;;;;;;-143.84;71.03;45050.97;4973492;28;20497;-54
2023/07/23 03:37:24;;;;;;;11.33;4.60;;;;;;;-143.84;70.13;45041.44;4973594;28;20447;-54
2023/07/23 03:39:52;;;;;;;17.60;5.00;;;;;;;-143.84;67.38;45054.78;4973582;28;20444;-54
2023/07/23 03:42:19;;;;;;;20.70;5.00;;;;;;;-143.84;66.65;45062.41;4973438;28;20505;-54
2023/07/23 03:44:46;;;;;;;22.60;5.40;;;;;;;-143.84;67.30;45037.66;4973655;28;20444;-54
2023/07/23 03:47:15;;;;;;;10.70;4.30;;;;;;;-143.84;67.53;45062.41;4973177;28;20453;-54
2023/07/23 03:49:43;;;;;;;15.23;5.07;;;;;;;-143.84;67.01;45035.75;4973219;28;20526;-53
2023/07/23 03:52:10;;;;;;;10.37;5.27;;;;;;;-143.84;67.36;45052.88;4973418;28;20452;-54
2023/07/23 03:54:38;;;;;;;12.20;5.03;;;;;;;-143.84;67.50;45054.78;4973194;28;21000;-54
2023/07/23 03:57:07;;;;;;;14.60;5.20;;;;;;;-143.84;66.74;45033.84;4973270;28;20453;-54
2023/07/23 03:59:37;;;;;;;10.27;4.63;;;;;;;-143.84;65.45;45043.34;4973353;28;20456;-54
2023/07/23 04:02:05;;;;;;;19.50;4.73;;;;;;;-143.84;64.05;45010.97;4973136;28;20810;-54
2023/07/23 04:04:32;;;;;;;16.23;5.80;;;;;;;-143.84;63.14;45031.94;4973173;28;21016;-54
2023/07/23 04:06:59;;;;;;;10.77;4.23;;;;;;;-143.84;61.24;45037.66;4973219;28;20448;-54
2023/07/23 04:09:27;;;;;;;13.50;4.83;;;;;;;-143.84;59.70;45037.66;4973050;28;20507;-54
2023/07/23 04:11:54;;;;;;;9.50;4.37;;;;;;;-143.84;58.95;45043.34;4973191;28;20535;-54
2023/07/23 04:14:22;;;;;;;18.10;5.07;;;;;;;-143.84;59.32;45009.09;4973276;28;20505;-54
2023/07/23 04:16:50;;;;;;;14.70;4.30;;;;;;;-143.84;58.22;45045.25;4972960;28;20473;-54
2023/07/23 04:19:17;;;;;;;20.40;6.13;;;;;;;-143.84;57.30;45001.47;4972912;28;20540;-54
2023/07/23 04:21:44;;;;;;;17.70;5.40;;;;;;;-143.84;56.85;44991.94;4972873;28;20446;-54
2023/07/23 04:24:11;;;;;;;10.77;5.10;;;;;;;-143.84;55.74;44999.56;4972842;28;20522;-54
2023/07/23 04:26:39;;;;;;;19.87;4.40;;;;;;;-143.84;54.05;44995.75;4972985;28;20820;-54
2023/07/23 04:29:08;;;;;;;15.03;4.53;;;;;;;-143.84;54.55;45028.13;4972732;28;20487;-54
2023/07/23 04:31:37;;;;;;;14.97;5.37;;;;;;;-143.84;53.93;45012.88;4972048;28;20454;-54
2023/07/23 04:34:04;;;;;;;15.67;5.47;;;;;;;-143.84;52.67;44971.00;4972749;28;20955;-54
2023/07/23 04:36:31;;;;;;;13.00;5.00;;;;;;;-143.84;52.04;44971.00;4972581;28;20453;-54
2023/07/23 04:39:00;;;;;;;11.03;4.80;;;;;;;-143.84;51.36;44995.75;4972946;28;20508;-55
2023/07/23 04:41:27;;;;;;;13.83;4.97;;;;;;;-143.84;52.06;45003.38;4972625;28;20845;-54
2023/07/23 04:43:54;;;;;;;14.53;5.70;;;;;;;-143.84;53.35;44984.31;4972499;28;20506;-54
2023/07/23 04:46:21;;;;;;;15.67;5.70;;;;;;;-143.84;54.44;44999.56;4972561;28;20450;-54
2023/07/23 04:48:50;;;;;;;11.97;4.60;;;;;;;-143.84;54.49;45030.03;4972380;28;20447;-54
2023/07/23 04:51:17;;;;;;;17.43;5.30;;;;;;;-143.84;54.09;45012.88;4972353;28;20449;-54
2023/07/23 04:53:44;;;;;;;13.70;5.30;;;;;;;-143.84;53.09;45001.47;4972053;28;20491;-54
2023/07/23 04:56:11;;;;;;;11.73;5.00;;;;;;;-143.84;52.43;44986.22;4972502;28;20942;-54
2023/07/23 04:58:38;;;;;;;20.20;4.87;;;;;;;-143.84;52.21;44978.63;4972108;28;20444;-54
2023/07/23 05:01:10;;;;;;;15.33;5.47;;;;;;;-143.84;52.14;44986.22;4972331;28;20501;-54
2023/07/23 05:03:37;;;;;;;17.37;5.60;;;;;;;-143.84;51.10;44965.28;4972096;28;20497;-54
2023/07/23 05:06:06;;;;;;;15.87;5.07;;;;;;;-143.84;52.27;44984.31;4972352;28;20547;-55
2023/07/23 05:08:34;;;;;;;8.03;4.70;;;;;;;-143.84;51.87;44955.75;4971797;28;20475;-54
2023/07/23 05:11:03;;;;;;;14.50;5.83;;;;;;;-143.84;52.32;44965.28;4971723;28;20454;-54
2023/07/23 05:13:31;;;;;;;13.37;5.73;;;;;;;-143.84;51.62;44991.94;4971961;28;20450;-54
2023/07/23 05:15:59;;;;;;;15.07;5.37;;;;;;;-143.84;50.30;44961.47;4971631;28;20888;-54
2023/07/23 05:18:26;;;;;;;9.50;5.00;;;;;;;-143.84;50.40;44971.00;4972160;28;20512;-54
2023/07/23 05:20:53;;;;;;;13.40;5.10;;;;;;;-143.84;50.35;44971.00;4971846;28;20463;-54
2023/07/23 05:23:23;;;;;;;13.03;4.53;;;;;;;-143.84;49.79;44951.97;4971755;28;20481;-54
2023/07/23 05:25:50;;;;;;;14.03;4.93;;;;;;;-143.84;48.51;44980.53;4971919;28;20446;-54
2023/07/23 05:28:17;;;;;;;16.00;4.20;;;;;;;-143.84;47.86;44953.88;4971977;28;20447;-54
2023/07/23 05:30:44;;;;;;;14.73;6.63;;;;;;;-143.84;48.11;44969.09;4971649;28;20446;-54
2023/07/23 05:33:11;;;;;;;12.43;4.97;;;;;;;-143.84;47.97;44946.25;4972102;28;20450;-54
2023/07/23 05:35:39;;;;;;;14.03;5.30;;;;;;;-143.84;47.48;44900.53;4971916;28;20516;-54
2023/07/23 05:38:07;;;;;;;13.93;5.03;;;;;;;-143.84;47.26;44936.72;4971764;28;20443;-54
2023/07/23 05:40:36;;;;;;;17.10;4.77;;;;;;;-143.84;46.89;44911.97;4971632;28;20521;-54
2023/07/23 05:43:08;;;;;;;12.37;5.70;;;;;;;-143.84;46.66;44925.31;4970570;28;20472;-54
2023/07/23 05:45:36;;;;;;;7.37;5.07;;;;;;;-143.84;46.30;44950.06;4971176;28;21019;-54
2023/07/23 05:48:03;;;;;;;15.17;5.93;;;;;;;-143.84;46.21;44942.44;4966383;28;20509;-54
2023/07/23 05:50:30;;;;;;;11.77;6.23;;;;;;;-143.84;46.95;44929.09;4967056;28;20481;-54
2023/07/23 05:52:57;;;;;;;15.50;5.80;;;;;;;-143.84;47.81;44923.41;4970163;28;21560;-54
2023/07/23 05:55:24;;;;;;;14.63;6.70;;;;;;;-143.84;48.47;44944.34;4970892;28;20540;-54
2023/07/23 05:57:53;;;;;;;16.27;5.80;;;;;;;-143.84;49.62;44963.38;4970596;28;20528;-54
2023/07/23 06:00:20;;;;;;;8.83;6.37;;;;;;;-143.84;49.55;44921.50;4971128;28;20524;-54
2023/07/23 06:02:47;;;;;;;14.13;6.53;;;;;;;-143.84;48.71;44950.06;4971258;28;20548;-54
2023/07/23 06:05:14;;;;;;;25.73;10.60;;;;;;;-143.84;51.45;44972.91;4971002;28;20481;-54
2023/07/23 06:07:41;;;;;;;17.43;7.60;;;;;;;-143.84;50.02;44950.06;4971097;28;20493;-54
2023/07/23 06:10:09;;;;;;;14.83;6.10;;;;;;;-143.84;47.92;44904.34;4971129;28;20870;-54
2023/07/23 06:12:36;;;;;;;15.43;6.50;;;;;;;-143.84;47.46;44919.59;4971100;28;20501;-54
2023/07/23 06:15:05;;;;;;;8.40;5.30;;;;;;;-143.84;45.92;44925.31;4970310;28;20835;-54
2023/07/23 06:17:32;;;;;;;8.73;5.30;;;;;;;-143.84;45.43;44921.50;4970944;28;20450;-50
2023/07/23 06:20:00;;;;;;;12.07;5.90;;;;;;;-143.84;45.77;44919.59;4971156;28;20457;-49
2023/07/23 06:22:27;;;;;;;18.80;5.60;;;;;;;-143.84;45.90;44908.16;4971242;28;20501;-49
2023/07/23 06:24:54;;;;;;;16.20;5.70;;;;;;;-143.84;46.78;44919.59;4970666;28;20549;-50
2023/07/23 06:27:21;;;;;;;11.30;5.50;;;;;;;-143.84;45.43;44864.38;4970496;28;20442;-50
2023/07/23 06:29:48;;;;;;;8.90;5.43;;;;;;;-143.84;45.10;44881.50;4970662;28;20886;-49
2023/07/23 06:32:17;;;;;;;9.63;5.63;;;;;;;-143.84;44.51;44896.75;4970517;28;20450;-50
2023/07/23 06:34:44;;;;;;;14.30;5.40;;;;;;;-143.84;44.62;44904.34;4966556;28;20979;-50
2023/07/23 06:37:11;;;;;;;11.80;5.83;;;;;;;-143.84;44.67;44883.41;4970495;28;20513;-48
2023/07/23 06:39:38;;;;;;;17.30;6.00;;;;;;;-143.84;44.16;44883.41;4969837;28;20457;-49
2023/07/23 06:42:06;;;;;;;12.33;5.43;;;;;;;-143.84;44.27;44875.78;4970266;28;20543;-49
2023/07/23 06:44:33;;;;;;;11.73;5.53;;;;;;;-143.84;44.22;44887.22;4970619;28;20532;-49
2023/07/23 06:47:00;;;;;;;16.30;5.97;;;;;;;-143.84;44.33;44877.69;4970746;28;20446;-50
2023/07/23 06:49:30;;;;;;;11.80;5.53;;;;;;;-143.84;43.18;44892.94;4970625;28;20449;-50
2023/07/23 06:51:57;;;;;;;12.53;6.10;;;;;;;-143.84;42.69;44885.31;4970767;28;20485;-50
2023/07/23 06:54:24;;;;;;;9.07;4.63;;;;;;;-143.84;43.50;44881.50;4970476;28;20478;-50
2023/07/23 06:56:53;;;;;;;11.07;5.90;;;;;;;-143.84;43.63;44873.88;4970852;28;20492;-50
2023/07/23 06:59:20;;;;;;;19.63;5.27;;;;;;;-143.84;42.74;44858.66;4970393;28;20442;-50
2023/07/23 07:01:47;;;;;;;12.43;5.47;;;;;;;-143.84;42.42;44870.09;4970257;28;20450;-49
2023/07/23 07:04:15;;;;;;;10.40;5.40;;;;;;;-143.84;42.73;44887.22;4970022;28;20509;-54
2023/07/23 07:06:44;;;;;;;14.50;5.57;;;;;;;-143.84;42.60;44860.56;4970203;28;20433;-54
2023/07/23 07:09:11;;;;;;;8.63;5.83;;;;;;;-143.84;42.03;44887.22;4970344;28;20458;-54
2023/07/23 07:11:38;;;;;;;11.43;6.10;;;;;;;-143.84;42.84;44864.38;4969947;28;20434;-54
2023/07/23 07:14:06;;;;;;;10.00;5.63;;;;;;;-143.84;42.54;44866.28;4970208;28;20446;-54
2023/07/23 07:16:33;;;;;;;10.60;5.93;;;;;;;-143.84;43.02;44898.66;4970201;28;20971;-54
2023/07/23 07:19:00;;;;;;;9.60;6.07;;;;;;;-143.84;43.46;44879.59;4969889;28;20449;-54
2023/07/23 07:21:27;;;;;;;11.30;5.27;;;;;;;-143.84;42.77;44873.88;4969383;28;20450;-54
2023/07/23 07:23:56;;;;;;;9.50;6.20;;;;;;;-143.84;42.85;44871.97;4969713;28;20551;-54
2023/07/23 07:26:23;;;;;;;22.63;5.30;;;;;;;-143.84;42.28;44883.41;4969396;28;20440;-54
2023/07/23 07:28:51;;;;;;;8.47;5.50;;;;;;;-143.84;42.68;44883.41;4969536;28;20868;-54
2023/07/23 07:31:18;;;;;;;17.57;5.90;;;;;;;-143.84;42.65;44923.41;4968951;28;20457;-54
2023/07/23 07:33:45;;;;;;;8.13;5.00;;;;;;;-143.84;42.61;44900.53;4969227;28;20533;-54
2023/07/23 07:36:12;;;;;;;12.33;6.03;;;;;;;-143.84;43.12;44932.91;4969243;28;20837;-54
2023/07/23 07:38:40;;;;;;;7.47;6.00;;;;;;;-143.84;44.44;44889.13;4969212;28;20458;-54
2023/07/23 07:41:09;;;;;;;11.93;5.30;;;;;;;-143.84;43.47;44927.19;4969025;28;20449;-54
2023/07/23 07:43:36;;;;;;;9.27;5.80;;;;;;;-143.84;44.63;44925.31;4969641;28;20454;-54
2023/07/23 07:46:05;;;;;;;17.23;6.17;;;;;;;-143.84;45.06;44927.19;4969407;28;20450;-54
2023/07/23 07:48:33;;;;;;;14.40;6.23;;;;;;;-143.84;45.19;44932.91;4969533;28;20458;-54
2023/07/23 07:51:01;;;;;;;11.10;5.20;;;;;;;-143.84;45.75;44950.06;4968956;28;20461;-54
2023/07/23 07:53:28;;;;;;;27.40;5.50;;;;;;;-143.84;46.32;44942.44;4969610;28;20453;-54
2023/07/23 07:55:56;;;;;;;7.33;5.50;;;;;;;-143.84;45.81;44931.00;4969503;28;20450;-54
2023/07/23 07:58:25;;;;;;;9.40;5.40;;;;;;;-143.84;45.42;44955.75;4969689;28;20943;-54
2023/07/23 08:00:54;;;;;;;11.83;4.83;;;;;;;-143.84;46.15;44921.50;4969679;28;20924;-54
2023/07/23 08:03:23;;;;;;;13.23;6.37;;;;;;;-143.84;46.15;44917.69;4969701;28;21289;-54
2023/07/23 08:05:51;;;;;;;11.27;6.00;;;;;;;-143.84;46.29;44931.00;4971528;28;20484;-54
2023/07/23 08:08:21;;;;;;;8.60;5.90;;;;;;;-143.84;45.24;44891.03;4973064;28;21015;-54
2023/07/23 08:10:48;;;;;;;11.20;5.90;;;;;;;-143.84;43.39;44908.16;4972716;28;20450;-54
2023/07/23 08:13:16;;;;;;;8.33;5.47;;;;;;;-143.84;43.47;44921.50;4972832;28;20513;-54
2023/07/23 08:15:45;;;;;;;9.83;5.07;;;;;;;-143.84;42.49;44898.66;4972871;28;20448;-54
2023/07/23 08:18:12;;;;;;;9.60;5.63;;;;;;;-143.84;41.91;44868.19;4972782;28;20473;-54
2023/07/23 08:20:40;;;;;;;7.23;4.63;;;;;;;-143.84;41.28;44889.13;4972902;28;21184;-54
2023/07/23 08:23:08;;;;;;;18.07;5.10;;;;;;;-143.84;41.22;44885.31;4972778;28;20448;-54
2023/07/23 08:25:37;;;;;;;10.60;4.63;;;;;;;-143.84;42.02;44881.50;4972639;28;21057;-54
2023/07/23 08:28:06;;;;;;;8.50;5.00;;;;;;;-143.84;40.35;44885.31;4972449;28;20457;-54
2023/07/23 08:30:33;;;;;;;9.63;4.87;;;;;;;-143.84;40.68;44908.16;4972578;28;20441;-54
2023/07/23 08:33:02;;;;;;;8.40;5.60;;;;;;;-143.84;40.85;44889.13;4972653;28;20457;-54
2023/07/23 08:35:30;;;;;;;10.70;5.40;;;;;;;-143.84;40.70;44881.50;4972617;28;20454;-54
2023/07/23 08:37:58;;;;;;;7.00;4.63;;;;;;;-143.84;40.98;44881.50;4972391;28;20445;-54
2023/07/23 08:40:26;;;;;;;9.30;5.00;;;;;;;-143.84;41.02;44862.47;4972720;28;20959;-54
2023/07/23 08:43:19;;;;;;;9.47;4.73;;;;;;;-143.84;39.44;44879.59;4973047;28;20434;-54
2023/07/23 08:46:22;;;;;;;10.23;5.47;;;;;;;-143.84;39.86;44873.88;4972405;28;20492;-54
2023/07/23 08:49:11;;;;;;;8.73;5.03;;;;;;;-143.84;39.92;44854.84;4972436;28;20442;-54
2023/07/23 08:51:43;;;;;;;17.17;5.40;;;;;;;-143.84;39.44;44849.13;4972431;28;20450;-54
2023/07/23 08:54:11;;;;;;;8.67;5.60;;;;;;;-143.84;38.68;44822.47;4971926;28;20577;-54
2023/07/23 08:56:40;;;;;;;7.53;5.70;;;;;;;-143.84;39.68;44839.63;4972396;28;20454;-54
2023/07/23 08:59:08;;;;;;;10.97;5.17;;;;;;;-143.84;39.03;44862.47;4972147;28;20457;-54
2023/07/23 09:01:36;;;;;;;10.17;4.97;;;;;;;-143.84;39.05;44856.75;4972162;28;20509;-54
2023/07/23 09:04:06;;;;;;;10.13;5.47;;;;;;;-143.84;39.22;44843.44;4971999;28;20446;-54
2023/07/23 09:06:35;;;;;;;9.73;5.67;;;;;;;-143.84;39.29;44830.09;4972078;28;21105;-54
2023/07/23 09:09:07;;;;;;;11.63;5.27;;;;;;;-143.84;39.12;44839.63;4971914;28;20449;-54
2023/07/23 09:11:35;;;;;;;8.23;5.67;;;;;;;-143.84;39.10;44824.38;4971734;28;20948;-54
2023/07/23 09:14:03;;;;;;;7.10;5.43;;;;;;;-143.84;38.69;44837.72;4972419;28;20442;-54
2023/07/23 09:16:30;;;;;;;14.70;6.07;;;;;;;-143.84;38.74;44845.31;4971974;28;21301;-54
2023/07/23 09:18:57;;;;;;;5.93;4.83;;;;;;;-143.84;39.18;44864.38;4971808;28;20453;-54
2023/07/23 09:21:26;;;;;;;11.30;5.33;;;;;;;-143.84;38.89;44854.84;4971689;28;20446;-54
2023/07/23 09:23:56;;;;;;;10.00;5.20;;;;;;;-143.84;39.12;44891.03;4971468;28;20434;-54
2023/07/23 09:26:25;;;;;;;7.00;4.97;;;;;;;-143.84;39.78;44864.38;4971385;28;20876;-54
2023/07/23 09:28:53;;;;;;;12.47;5.13;;;;;;;-143.84;39.71;44858.66;4971666;28;20481;-54
2023/07/23 09:31:26;;;;;;;7.53;4.83;;;;;;;-143.84;39.95;44877.69;4971605;28;20445;-54
2023/07/23 09:33:57;;;;;;;9.60;4.37;;;;;;;-143.84;39.35;44847.22;4971545;28;20445;-54
2023/07/23 09:36:26;;;;;;;12.40;4.67;;;;;;;-143.84;38.74;44809.16;4971292;28;20963;-54
2023/07/23 09:39:02;;;;;;;11.10;4.80;;;;;;;-143.84;39.15;44845.31;4971967;28;20442;-54
2023/07/23 09:41:31;;;;;;;6.97;4.50;;;;;;;-143.84;38.84;44854.84;4971212;28;20457;-54
2023/07/23 09:44:01;;;;;;;9.63;5.03;;;;;;;-143.84;38.70;44875.78;4971192;28;20454;-54
2023/07/23 09:46:28;;;;;;;5.10;4.70;;;;;;;-143.84;39.17;44889.13;4971211;28;20485;-54
2023/07/23 09:48:55;;;;;;;8.67;5.30;;;;;;;-143.84;40.03;44877.69;4971220;28;20478;-54
2023/07/23 09:51:23;;;;;;;8.73;4.70;;;;;;;-143.84;40.89;44885.31;4971314;28;20513;-54
2023/07/23 09:53:51;;;;;;;6.60;5.43;;;;;;;-143.84;40.83;44866.28;4970937;28;20490;-54
2023/07/23 09:56:22;;;;;;;8.83;5.20;;;;;;;-143.84;41.08;44883.41;4971067;28;20453;-54
2023/07/23 09:58:50;;;;;;;8.97;5.70;;;;;;;-143.84;40.84;44862.47;4970905;28;20962;-54
2023/07/23 10:01:19;;;;;;;6.40;5.57;;;;;;;-143.84;41.80;44900.53;4971139;28;20446;-54
2023/07/23 10:03:47;;;;;;;7.27;6.33;;;;;;;-143.84;42.02;44894.84;4971197;28;21020;-54
2023/07/23 10:06:15;;;;;;;10.73;6.60;;;;;;;-143.84;41.89;44879.59;4971152;28;20485;-54
2023/07/23 10:08:44;;;;;;;10.40;7.03;;;;;;;-143.84;42.28;44892.94;4971049;28;20545;-54
2023/07/23 10:11:12;;;;;;;10.00;6.00;;;;;;;-143.84;42.54;44883.41;4970962;28;20534;-54
2023/07/23 10:13:42;;;;;;;11.13;7.07;;;;;;;-143.84;42.07;44902.44;4970925;28;20523;-54
2023/07/23 10:16:11;;;;;;;14.40;7.00;;;;;;;-143.84;41.85;44862.47;4970732;28;20454;-54
2023/07/23 10:18:41;;;;;;;9.53;6.90;;;;;;;-143.84;41.28;44896.75;4970721;28;21204;-54
2023/07/23 10:21:10;;;;;;;11.70;6.30;;;;;;;-143.84;41.74;44851.03;4970719;28;20851;-54
2023/07/23 10:23:42;;;;;;;16.83;6.40;;;;;;;-143.84;41.23;44877.69;4970821;28;20849;-54
2023/07/23 10:26:25;;;;;;;10.33;6.83;;;;;;;-143.84;41.01;44900.53;4970765;28;20572;-54
2023/07/23 10:28:58;;;;;;;11.23;6.67;;;;;;;-143.84;40.09;44892.94;4970145;28;20449;-54
2023/07/23 10:31:27;;;;;;;15.53;5.70;;;;;;;-143.84;41.18;44862.47;4970720;28;20454;-54
2023/07/23 10:33:55;;;;;;;7.07;6.00;;;;;;;-143.84;40.36;44862.47;4970388;28;20454;-54
2023/07/23 10:36:23;;;;;;;8.30;6.00;;;;;;;-143.84;40.29;44889.13;4970562;28;20461;-54
2023/07/23 10:39:18;;;;;;;7.77;5.73;;;;;;;-143.84;41.02;44858.66;4970501;28;20862;-54
2023/07/23 10:41:51;;;;;;;11.43;5.90;;;;;;;-143.84;39.74;44860.56;4970326;28;20448;-54
2023/07/23 10:44:29;;;;;;;10.67;5.90;;;;;;;-143.84;40.03;44864.38;4970389;28;20508;-54
2023/07/23 10:46:57;;;;;;;7.80;6.00;;;;;;;-143.84;39.53;44896.75;4970304;28;20552;-54
2023/07/23 10:49:27;;;;;;;5.73;5.23;;;;;;;-143.84;39.89;44862.47;4970160;28;20446;-54
2023/07/23 10:51:56;;;;;;;8.83;6.20;;;;;;;-143.84;38.86;44881.50;4970538;28;20855;-54
2023/07/23 10:54:23;;;;;;;5.80;5.10;;;;;;;-143.84;39.03;44873.88;4970173;28;20485;-54
2023/07/23 10:56:50;;;;;;;5.57;5.13;;;;;;;-143.84;39.38;44870.09;4970304;28;20453;-54
2023/07/23 10:59:21;;;;;;;9.63;5.70;;;;;;;-143.84;39.27;44854.84;4970048;28;20513;-54
2023/07/23 11:01:51;;;;;;;9.53;5.40;;;;;;;-143.84;38.96;44839.63;4970093;28;20935;-54
2023/07/23 11:04:25;;;;;;;8.80;4.90;;;;;;;-143.84;37.68;44860.56;4970077;28;20486;-54
2023/07/23 11:06:57;;;;;;;5.80;5.20;;;;;;;-143.84;37.69;44866.28;4969846;28;20500;-54
2023/07/23 11:09:28;;;;;;;10.23;5.77;;;;;;;-143.84;37.55;44851.03;4970065;28;20438;-54
2023/07/23 11:11:56;;;;;;;12.50;5.07;;;;;;;-143.84;38.14;44858.66;4970362;28;20446;-54
2023/07/23 11:14:24;;;;;;;9.23;5.57;;;;;;;-143.84;37.21;44860.56;4969954;28;20446;-54
2023/07/23 11:16:54;;;;;;;6.47;4.90;;;;;;;-143.84;37.44;44862.47;4970154;28;20442;-54